Time;durP1;ratioP1;P1;durP2;ratioP2;P2;SDS_P1;SDS_P2;PMS_P1;PMS_P2;Temp;Humidity;BMP_temperature;BMP_pressure;BME280_temperature;BME280_humidity;BME280_pressure;Samples;Min_cycle;Max_cycle;Signal;HPM_P1;HPM_P2
2024/01/06 00:00:22;;;;;;;10.57;7.85;;;5.30;99.90;;;;;;5030072;28;20045;-67
2024/01/06 00:02:55;;;;;;;8.15;6.70;;;5.30;99.90;;;;;;5019132;28;20042;-66
2024/01/06 00:05:27;;;;;;;9.73;6.53;;;5.30;99.90;;;;;;5013938;28;20532;-66
2024/01/06 00:07:59;;;;;;;8.93;7.20;;;5.30;99.90;;;;;;5022403;28;20069;-66
2024/01/06 00:10:32;;;;;;;8.23;6.47;;;5.30;99.90;;;;;;5016400;28;20036;-66
2024/01/06 00:13:04;;;;;;;8.10;6.30;;;5.30;99.90;;;;;;5027528;28;20037;-66
2024/01/06 00:15:31;;;;;;;9.15;6.43;;;5.20;99.90;;;;;;5023722;28;20044;-66
2024/01/06 00:18:02;;;;;;;7.47;6.30;;;5.20;99.90;;;;;;5020891;28;20054;-66
2024/01/06 00:20:34;;;;;;;9.90;6.05;;;5.20;99.90;;;;;;5026239;28;20112;-66
2024/01/06 00:23:06;;;;;;;8.77;7.43;;;5.20;99.90;;;;;;5023794;28;20045;-66
2024/01/06 00:25:38;;;;;;;7.30;6.15;;;5.20;99.90;;;;;;5022984;28;20047;-66
2024/01/06 00:28:10;;;;;;;8.25;6.72;;;5.20;99.90;;;;;;5024349;28;20037;-66
2024/01/06 00:30:42;;;;;;;9.77;7.10;;;5.20;99.90;;;;;;5023966;28;20044;-66
2024/01/06 00:33:14;;;;;;;12.63;9.07;;;5.10;99.90;;;;;;5022571;28;20053;-67
2024/01/06 00:35:40;;;;;;;14.57;10.00;;;5.20;99.90;;;;;;5029329;28;20061;-67
2024/01/06 00:38:12;;;;;;;12.10;8.25;;;5.20;99.90;;;;;;5024132;28;20498;-66
2024/01/06 00:40:44;;;;;;;9.25;7.57;;;5.10;99.90;;;;;;5030196;28;20048;-66
2024/01/06 00:43:16;;;;;;;8.98;7.45;;;5.10;99.90;;;;;;5023154;28;20047;-66
2024/01/06 00:45:48;;;;;;;9.43;7.18;;;5.10;99.90;;;;;;5011466;28;20046;-66
2024/01/06 00:48:20;;;;;;;8.45;7.45;;;5.10;99.90;;;;;;5014937;28;20033;-67
2024/01/06 00:50:52;;;;;;;11.20;8.97;;;5.10;99.90;;;;;;5028622;28;20045;-66
2024/01/06 00:53:24;;;;;;;11.02;8.77;;;5.10;99.90;;;;;;5024167;28;20308;-67
2024/01/06 00:55:56;;;;;;;9.93;8.40;;;5.10;99.90;;;;;;5026614;28;20061;-66
2024/01/06 00:58:28;;;;;;;11.38;8.73;;;5.10;99.90;;;;;;5029148;28;20042;-66
2024/01/06 01:01:00;;;;;;;11.40;8.43;;;5.20;99.90;;;;;;5020999;28;20418;-66
2024/01/06 01:03:32;;;;;;;12.30;10.13;;;5.20;99.90;;;;;;5025294;28;20056;-66
2024/01/06 01:06:04;;;;;;;12.10;9.68;;;5.20;99.90;;;;;;5032463;28;20077;-66
2024/01/06 01:08:35;;;;;;;12.88;10.48;;;5.20;99.90;;;;;;5029735;28;20128;-66
2024/01/06 01:11:07;;;;;;;11.30;9.52;;;5.20;99.90;;;;;;5031655;28;20045;-67
2024/01/06 01:13:39;;;;;;;13.57;9.60;;;5.20;99.90;;;;;;5024410;28;20041;-66
2024/01/06 01:16:11;;;;;;;11.52;9.65;;;5.20;99.90;;;;;;5025856;28;20080;-66
2024/01/06 01:18:42;;;;;;;11.05;9.10;;;5.20;99.90;;;;;;5025261;28;20034;-66
2024/01/06 01:21:15;;;;;;;9.88;8.25;;;5.20;99.90;;;;;;5027604;28;20041;-66
2024/01/06 01:23:46;;;;;;;11.43;8.88;;;5.20;99.90;;;;;;5028637;28;20048;-66
2024/01/06 01:26:18;;;;;;;9.88;7.55;;;5.20;99.90;;;;;;5021003;28;20152;-67
2024/01/06 01:28:50;;;;;;;11.68;9.23;;;5.20;99.90;;;;;;5025921;28;20045;-69
2024/01/06 01:31:22;;;;;;;12.10;9.60;;;5.20;99.90;;;;;;5026919;28;20662;-66
2024/01/06 01:33:54;;;;;;;12.05;9.50;;;5.20;99.90;;;;;;5026241;28;20052;-66
2024/01/06 01:36:21;;;;;;;11.00;9.77;;;5.20;99.90;;;;;;5030224;28;20046;-66
2024/01/06 01:38:48;;;;;;;12.85;9.45;;;5.10;99.90;;;;;;5027958;28;20037;-66
2024/01/06 01:41:20;;;;;;;10.90;9.73;;;5.10;99.90;;;;;;5029309;28;20041;-66
2024/01/06 01:43:47;;;;;;;14.52;10.38;;;5.10;99.90;;;;;;5020250;28;20036;-66
2024/01/06 01:46:18;;;;;;;12.80;9.88;;;5.10;99.90;;;;;;5036961;28;20048;-66
2024/01/06 01:48:45;;;;;;;15.95;11.18;;;5.10;99.90;;;;;;5020694;28;20498;-66
2024/01/06 01:51:19;;;;;;;13.30;10.80;;;5.10;99.90;;;;;;5016413;28;20049;-67
2024/01/06 01:53:46;;;;;;;14.13;11.35;;;5.20;99.90;;;;;;5010833;28;20406;-66
2024/01/06 01:56:19;;;;;;;14.13;11.43;;;5.20;99.90;;;;;;5019323;28;20049;-66
2024/01/06 01:58:51;;;;;;;10.32;7.45;;;5.10;99.90;;;;;;5014028;28;20046;-66
2024/01/06 02:01:18;;;;;;;16.25;10.73;;;5.10;99.90;;;;;;5019386;28;20709;-66
2024/01/06 02:03:50;;;;;;;15.10;11.00;;;5.10;99.90;;;;;;5021252;28;20037;-66
2024/01/06 02:06:22;;;;;;;14.43;11.20;;;5.10;99.90;;;;;;5017924;28;20037;-66
2024/01/06 02:08:55;;;;;;;17.65;12.18;;;5.20;99.90;;;;;;5018100;28;20418;-67
2024/01/06 02:11:27;;;;;;;17.05;12.60;;;5.20;99.90;;;;;;5022724;28;20033;-66
2024/01/06 02:13:58;;;;;;;17.83;12.30;;;5.20;99.90;;;;;;5015301;28;20046;-66
2024/01/06 02:16:30;;;;;;;17.40;12.38;;;5.20;99.90;;;;;;5033722;28;20037;-66
2024/01/06 02:19:02;;;;;;;16.25;12.00;;;5.20;99.90;;;;;;5022731;28;20447;-66
2024/01/06 02:21:39;;;;;;;16.65;12.55;;;5.20;99.90;;;;;;5014646;28;20476;-66
2024/01/06 02:24:11;;;;;;;15.40;11.43;;;5.10;99.90;;;;;;5016905;28;20049;-66
2024/01/06 02:26:43;;;;;;;16.38;11.68;;;5.10;99.90;;;;;;5022083;28;20073;-66
2024/01/06 02:29:14;;;;;;;17.85;12.82;;;5.10;99.90;;;;;;5019403;28;20529;-66
2024/01/06 02:31:46;;;;;;;18.08;12.75;;;5.10;99.90;;;;;;5022143;28;20046;-66
2024/01/06 02:34:18;;;;;;;18.67;10.60;;;5.10;99.90;;;;;;5035804;28;20045;-66
2024/01/06 02:36:45;;;;;;;16.50;9.23;;;5.10;99.90;;;;;;5020010;28;20154;-66
2024/01/06 02:39:17;;;;;;;17.25;9.55;;;5.10;99.90;;;;;;5024717;28;20490;-65
2024/01/06 02:41:49;;;;;;;13.73;8.77;;;5.10;99.90;;;;;;5006102;28;20133;-65
2024/01/06 02:44:21;;;;;;;12.63;7.30;;;5.00;99.90;;;;;;5018724;28;20037;-69
2024/01/06 02:46:54;;;;;;;13.45;8.73;;;5.00;99.90;;;;;;5024060;28;20037;-66
2024/01/06 02:49:26;;;;;;;13.32;7.10;;;5.00;99.90;;;;;;5018453;28;20425;-66
2024/01/06 02:51:58;;;;;;;11.38;7.50;;;4.90;99.90;;;;;;5018379;28;20050;-66
2024/01/06 02:54:25;;;;;;;12.82;6.82;;;4.90;99.90;;;;;;5022494;28;20037;-66
2024/01/06 02:56:57;;;;;;;11.90;5.82;;;4.90;99.90;;;;;;5020414;28;20049;-66
2024/01/06 02:59:23;;;;;;;8.80;6.20;;;4.90;99.90;;;;;;5018430;28;20030;-66
2024/01/06 03:01:51;;;;;;;10.85;5.75;;;4.90;99.90;;;;;;5015705;28;20036;-66
2024/01/06 03:04:22;;;;;;;9.13;5.00;;;4.90;99.90;;;;;;5017910;28;20060;-66
2024/01/06 03:06:53;;;;;;;6.63;4.38;;;4.80;99.90;;;;;;5016014;28;20834;-66
2024/01/06 03:09:25;;;;;;;10.27;5.03;;;4.80;99.90;;;;;;5011780;28;20045;-66
2024/01/06 03:11:51;;;;;;;9.32;5.93;;;4.80;99.90;;;;;;5010792;28;20578;-66
2024/01/06 03:14:23;;;;;;;9.25;4.20;;;4.80;99.90;;;;;;5020425;28;20045;-66
2024/01/06 03:16:50;;;;;;;11.27;4.32;;;4.70;99.90;;;;;;5017403;28;20038;-66
2024/01/06 03:19:25;;;;;;;6.43;4.07;;;4.70;99.90;;;;;;5021017;28;20045;-66
2024/01/06 03:21:57;;;;;;;8.52;3.80;;;4.60;99.90;;;;;;5017233;28;20045;-66
2024/01/06 03:24:30;;;;;;;6.90;3.20;;;4.60;99.90;;;;;;5020008;28;20041;-65
2024/01/06 03:27:02;;;;;;;3.70;2.20;;;4.60;99.90;;;;;;5020466;28;20041;-66
2024/01/06 03:29:34;;;;;;;6.30;2.42;;;4.60;99.90;;;;;;5018135;28;20034;-66
2024/01/06 03:32:06;;;;;;;4.50;2.30;;;4.50;99.90;;;;;;5013470;28;20060;-65
2024/01/06 03:34:33;;;;;;;5.25;2.75;;;4.40;99.90;;;;;;5027491;28;20034;-66
2024/01/06 03:37:05;;;;;;;4.28;2.25;;;4.40;99.90;;;;;;5011786;28;20502;-66
2024/01/06 03:39:37;;;;;;;6.68;1.77;;;4.30;99.90;;;;;;5010903;28;20034;-65
2024/01/06 03:42:08;;;;;;;6.65;2.40;;;4.30;99.90;;;;;;5017774;28;20042;-65
2024/01/06 03:44:40;;;;;;;3.15;1.50;;;4.30;99.90;;;;;;5017874;28;20030;-66
2024/01/06 03:47:12;;;;;;;4.43;2.60;;;4.30;99.90;;;;;;5015716;28;20053;-66
2024/01/06 03:49:39;;;;;;;4.93;1.70;;;4.30;99.90;;;;;;5020734;28;20045;-66
2024/01/06 03:52:05;;;;;;;3.90;1.58;;;4.30;99.90;;;;;;5019949;28;20581;-66
2024/01/06 03:54:37;;;;;;;5.93;1.63;;;4.30;99.90;;;;;;5021909;28;20047;-66
2024/01/06 03:57:09;;;;;;;7.78;1.90;;;4.20;99.90;;;;;;5014947;28;20049;-66
2024/01/06 03:59:36;;;;;;;5.70;1.75;;;4.20;99.90;;;;;;5017065;28;20066;-66
2024/01/06 04:02:07;;;;;;;4.30;1.42;;;4.10;99.90;;;;;;5011750;28;20050;-66
2024/01/06 04:04:34;;;;;;;2.47;1.50;;;4.10;99.90;;;;;;5009742;28;20038;-66
2024/01/06 04:07:06;;;;;;;4.00;1.83;;;4.10;99.90;;;;;;5012949;28;20054;-66
2024/01/06 04:09:33;;;;;;;5.45;1.42;;;4.10;99.90;;;;;;5012699;28;20034;-66
2024/01/06 04:12:05;;;;;;;6.30;1.73;;;4.10;99.90;;;;;;5016099;28;20046;-66
2024/01/06 04:14:37;;;;;;;3.08;1.23;;;4.10;99.90;;;;;;5017997;28;20041;-66
2024/01/06 04:17:09;;;;;;;7.28;1.55;;;4.10;99.90;;;;;;5017774;28;20050;-66
2024/01/06 04:19:41;;;;;;;2.83;1.25;;;4.20;99.90;;;;;;5014993;28;20038;-65
2024/01/06 04:22:13;;;;;;;4.72;1.52;;;4.20;99.90;;;;;;5018612;28;20952;-65
2024/01/06 04:24:45;;;;;;;2.28;1.10;;;4.20;99.90;;;;;;5015670;28;20123;-66
2024/01/06 04:27:17;;;;;;;3.30;1.40;;;4.20;99.90;;;;;;5011293;28;20041;-66
2024/01/06 04:29:52;;;;;;;5.22;1.95;;;4.20;99.90;;;;;;5010595;28;20478;-66
2024/01/06 04:32:24;;;;;;;3.55;1.50;;;4.20;99.90;;;;;;5011804;28;20037;-66
2024/01/06 04:34:51;;;;;;;3.97;1.40;;;4.20;99.90;;;;;;5012177;28;20045;-66
2024/01/06 04:37:23;;;;;;;4.47;1.67;;;4.20;99.90;;;;;;5018189;28;20064;-66
2024/01/06 04:39:54;;;;;;;7.90;2.88;;;4.20;99.90;;;;;;5016378;28;20046;-66
2024/01/06 04:42:26;;;;;;;4.55;1.83;;;4.20;99.90;;;;;;5024667;28;20462;-66
2024/01/06 04:44:58;;;;;;;3.22;1.73;;;4.20;99.90;;;;;;5019344;28;20522;-65
2024/01/06 04:47:30;;;;;;;5.72;2.83;;;4.20;99.90;;;;;;5020349;28;20070;-66
2024/01/06 04:50:02;;;;;;;3.33;1.90;;;4.20;99.90;;;;;;5014872;28;20087;-66
2024/01/06 04:52:34;;;;;;;1.65;1.17;;;4.20;99.90;;;;;;5011962;28;20050;-66
2024/01/06 04:55:06;;;;;;;2.17;1.33;;;4.20;99.90;;;;;;5011063;28;20069;-66
2024/01/06 04:57:38;;;;;;;4.85;1.73;;;4.20;99.90;;;;;;5012008;28;20052;-66
2024/01/06 05:00:11;;;;;;;4.43;1.85;;;4.20;99.90;;;;;;5018746;28;20038;-66
2024/01/06 05:02:43;;;;;;;4.87;1.60;;;4.20;99.90;;;;;;5013303;28;20446;-67
2024/01/06 05:05:16;;;;;;;3.67;1.50;;;4.10;99.90;;;;;;5018624;28;20276;-66
2024/01/06 05:07:48;;;;;;;6.68;2.20;;;4.20;99.90;;;;;;5021870;28;20037;-66
2024/01/06 05:10:20;;;;;;;4.35;1.73;;;4.10;99.90;;;;;;5019067;28;20498;-66
2024/01/06 05:12:46;;;;;;;3.95;1.60;;;4.10;99.90;;;;;;5016830;28;20044;-66
2024/01/06 05:15:19;;;;;;;5.43;2.10;;;4.10;99.90;;;;;;5034135;28;20045;-66
2024/01/06 05:17:51;;;;;;;4.68;2.10;;;4.10;99.90;;;;;;5018735;28;20042;-67
2024/01/06 05:20:23;;;;;;;7.68;1.95;;;4.00;99.90;;;;;;5018827;28;20046;-66
2024/01/06 05:22:50;;;;;;;3.78;1.85;;;4.00;99.90;;;;;;5009615;28;20417;-66
2024/01/06 05:25:22;;;;;;;5.90;1.88;;;4.00;99.90;;;;;;5012980;28;20506;-66
2024/01/06 05:27:53;;;;;;;4.72;2.15;;;4.00;99.90;;;;;;5016099;28;20056;-66
2024/01/06 05:30:25;;;;;;;3.65;2.05;;;3.90;99.90;;;;;;5028885;28;20045;-66
2024/01/06 05:32:57;;;;;;;4.20;2.47;;;3.90;99.90;;;;;;5020952;28;20049;-66
2024/01/06 05:35:29;;;;;;;5.07;2.83;;;3.90;99.90;;;;;;5021583;28;20046;-66
2024/01/06 05:37:56;;;;;;;4.47;2.10;;;3.90;99.90;;;;;;5020447;28;20422;-66
2024/01/06 05:40:23;;;;;;;7.75;2.75;;;3.80;99.90;;;;;;5027426;28;20042;-65
2024/01/06 05:42:56;;;;;;;4.78;2.40;;;3.80;99.90;;;;;;5022359;28;20069;-66
2024/01/06 05:45:28;;;;;;;3.33;2.28;;;3.70;99.90;;;;;;5024912;28;20048;-66
2024/01/06 05:47:55;;;;;;;3.85;2.60;;;3.70;99.90;;;;;;5020431;28;20585;-66
2024/01/06 05:50:22;;;;;;;6.65;2.50;;;3.70;99.90;;;;;;5012746;28;20569;-66
2024/01/06 05:52:54;;;;;;;3.13;2.00;;;3.70;99.90;;;;;;5026667;28;20049;-66
2024/01/06 05:55:25;;;;;;;6.78;2.60;;;3.70;99.90;;;;;;5025016;28;20154;-66
2024/01/06 05:57:57;;;;;;;7.95;2.55;;;3.70;99.90;;;;;;5025683;28;20042;-66
2024/01/06 06:00:31;;;;;;;5.05;2.55;;;3.60;99.90;;;;;;5021722;28;20040;-66
2024/01/06 06:03:03;;;;;;;3.65;1.85;;;3.60;99.90;;;;;;5023988;28;20041;-66
2024/01/06 06:05:35;;;;;;;6.63;2.50;;;3.60;99.90;;;;;;5027372;28;20050;-66
2024/01/06 06:08:07;;;;;;;3.67;1.92;;;3.60;99.90;;;;;;5017620;28;20500;-66
2024/01/06 06:10:51;;;;;;;6.20;2.22;;;3.60;99.90;;;;;;5024203;28;20120;-66
2024/01/06 06:13:23;;;;;;;4.47;2.80;;;3.60;99.90;;;;;;5015562;28;20415;-67
2024/01/06 06:15:55;;;;;;;5.38;2.30;;;3.70;99.90;;;;;;5012033;28;20061;-66
2024/01/06 06:18:27;;;;;;;4.90;2.22;;;3.60;99.90;;;;;;5013185;28;20072;-66
2024/01/06 06:20:59;;;;;;;4.20;2.72;;;3.60;99.90;;;;;;5017232;28;20133;-66
2024/01/06 06:23:31;;;;;;;4.72;2.42;;;3.60;99.90;;;;;;5018449;28;20096;-66
2024/01/06 06:26:05;;;;;;;8.05;3.35;;;3.60;99.90;;;;;;5020046;28;20425;-67
2024/01/06 06:28:37;;;;;;;7.40;2.90;;;3.70;99.90;;;;;;5020096;28;20029;-66
2024/01/06 06:31:04;;;;;;;6.10;2.67;;;3.60;99.90;;;;;;5020740;28;20037;-64
2024/01/06 06:33:36;;;;;;;6.70;2.80;;;3.70;99.90;;;;;;5020339;28;20037;-64
2024/01/06 06:36:08;;;;;;;4.57;2.45;;;3.70;99.90;;;;;;5020107;28;20077;-64
2024/01/06 06:38:39;;;;;;;6.90;3.20;;;3.70;99.90;;;;;;5014230;28;20050;-64
2024/01/06 06:41:11;;;;;;;4.38;2.60;;;3.70;99.90;;;;;;5019249;28;20416;-64
2024/01/06 06:43:43;;;;;;;6.03;3.10;;;3.70;99.90;;;;;;5013014;28;20039;-64
2024/01/06 06:46:15;;;;;;;8.32;4.07;;;3.70;99.90;;;;;;5013713;28;20052;-64
2024/01/06 06:48:47;;;;;;;9.45;4.45;;;3.70;99.90;;;;;;5020194;28;20113;-64
2024/01/06 06:51:21;;;;;;;8.82;3.90;;;3.70;99.90;;;;;;5028235;28;20060;-64
2024/01/06 06:53:53;;;;;;;5.70;3.15;;;3.80;99.90;;;;;;5018579;28;20528;-63
2024/01/06 06:56:25;;;;;;;4.10;2.45;;;3.80;99.90;;;;;;5028672;28;20056;-63
2024/01/06 06:58:57;;;;;;;5.57;2.45;;;3.70;99.90;;;;;;5024047;28;20137;-64
2024/01/06 07:01:29;;;;;;;6.53;2.83;;;3.70;99.90;;;;;;5022389;28;20124;-63
2024/01/06 07:04:02;;;;;;;8.38;2.88;;;3.70;99.90;;;;;;5020043;28;20049;-63
2024/01/06 07:06:29;;;;;;;6.72;3.17;;;3.80;99.90;;;;;;5025041;28;20037;-64
2024/01/06 07:09:02;;;;;;;6.03;2.60;;;3.80;99.90;;;;;;5014199;28;20049;-64
2024/01/06 07:11:33;;;;;;;3.75;2.40;;;3.70;99.90;;;;;;5026135;28;20107;-66
2024/01/06 07:14:05;;;;;;;7.07;3.40;;;3.70;99.90;;;;;;5037292;28;20395;-65
2024/01/06 07:16:37;;;;;;;7.93;3.08;;;3.70;99.90;;;;;;5018430;28;20042;-69
2024/01/06 07:19:09;;;;;;;5.80;2.88;;;3.70;99.90;;;;;;5025986;28;20410;-66
2024/01/06 07:21:41;;;;;;;4.93;2.95;;;3.70;99.90;;;;;;5030806;28;20045;-67
2024/01/06 07:24:13;;;;;;;8.13;3.38;;;3.70;99.90;;;;;;5020111;28;20506;-67
2024/01/06 07:26:40;;;;;;;7.28;3.72;;;3.80;99.90;;;;;;5018416;28;20029;-67
2024/01/06 07:29:12;;;;;;;9.30;4.60;;;3.90;99.90;;;;;;5006727;28;20410;-67
2024/01/06 07:31:44;;;;;;;7.93;4.20;;;3.90;99.90;;;;;;5018470;28;20116;-66
2024/01/06 07:34:16;;;;;;;6.65;3.47;;;3.90;99.90;;;;;;5019848;28;20128;-66
2024/01/06 07:36:42;;;;;;;6.13;3.30;;;3.90;99.90;;;;;;5015902;28;20501;-66
2024/01/06 07:39:14;;;;;;;7.45;3.00;;;3.90;99.90;;;;;;5023239;28;20388;-67
2024/01/06 07:41:46;;;;;;;8.02;3.78;;;3.90;99.90;;;;;;5025124;28;20497;-67
2024/01/06 07:44:24;;;;;;;7.75;2.75;;;3.90;99.90;;;;;;5022326;28;20045;-67
2024/01/06 07:46:56;;;;;;;6.30;3.03;;;3.90;99.90;;;;;;5036606;28;20040;-66
2024/01/06 07:49:27;;;;;;;6.65;2.90;;;3.90;99.90;;;;;;5021682;28;20050;-66
2024/01/06 07:51:59;;;;;;;7.20;2.58;;;3.80;99.90;;;;;;5018403;28;20052;-65
2024/01/06 07:54:27;;;;;;;4.82;3.05;;;3.80;99.90;;;;;;5023794;28;20053;-65
2024/01/06 07:56:59;;;;;;;6.30;2.72;;;3.80;99.90;;;;;;5016779;28;20037;-66
2024/01/06 07:59:31;;;;;;;3.72;2.38;;;3.80;99.90;;;;;;5025131;28;20056;-67
2024/01/06 08:01:58;;;;;;;6.82;3.20;;;3.80;99.90;;;;;;5020235;28;20042;-66
2024/01/06 08:04:26;;;;;;;5.85;3.20;;;3.70;99.90;;;;;;5026688;28;20052;-66
2024/01/06 08:06:58;;;;;;;3.75;2.60;;;3.70;99.90;;;;;;5020955;28;20056;-67
2024/01/06 08:09:25;;;;;;;4.40;2.33;;;3.80;99.90;;;;;;5021933;28;20049;-66
2024/01/06 08:11:56;;;;;;;7.35;2.72;;;3.80;99.90;;;;;;5023811;28;20042;-66
2024/01/06 08:14:28;;;;;;;6.57;2.97;;;3.70;99.90;;;;;;5024284;28;20046;-66
2024/01/06 08:16:55;;;;;;;6.68;2.22;;;3.70;99.90;;;;;;5021166;28;20520;-66
2024/01/06 08:19:29;;;;;;;5.28;2.65;;;3.70;99.90;;;;;;5019094;28;20065;-66
2024/01/06 08:22:01;;;;;;;7.05;2.92;;;3.80;99.90;;;;;;5026228;28;20049;-66
2024/01/06 08:24:33;;;;;;;5.47;2.72;;;3.70;99.90;;;;;;5017533;28;20045;-66
2024/01/06 08:27:05;;;;;;;6.45;2.63;;;3.70;99.90;;;;;;5022060;28;20536;-66
2024/01/06 08:29:38;;;;;;;4.55;2.90;;;3.70;99.90;;;;;;5022716;28;20041;-66
2024/01/06 08:32:05;;;;;;;8.98;3.10;;;3.70;99.90;;;;;;5019429;28;20041;-66
2024/01/06 08:34:38;;;;;;;11.15;2.78;;;3.70;99.90;;;;;;5022819;28;20045;-66
2024/01/06 08:37:09;;;;;;;5.55;2.60;;;3.70;99.90;;;;;;5024814;28;20049;-67
2024/01/06 08:39:36;;;;;;;6.85;2.65;;;3.70;99.90;;;;;;5022530;28;20518;-66
2024/01/06 08:42:08;;;;;;;8.85;3.20;;;3.70;99.90;;;;;;5024532;28;20041;-66
2024/01/06 08:44:40;;;;;;;5.55;2.67;;;3.70;99.90;;;;;;5022405;28;20037;-66
2024/01/06 08:47:07;;;;;;;5.07;2.65;;;3.70;99.90;;;;;;5023967;28;20045;-66
2024/01/06 08:49:39;;;;;;;5.82;2.40;;;3.70;99.90;;;;;;5016705;28;20050;-66
2024/01/06 08:52:11;;;;;;;345.05;183.20;;;3.70;99.90;;;;;;5025778;28;20049;-66
2024/01/06 08:54:42;;;;;;;33.42;15.93;;;3.80;99.90;;;;;;5019559;28;20056;-67
2024/01/06 08:57:15;;;;;;;6.70;3.03;;;4.00;99.90;;;;;;5024637;28;20493;-67
2024/01/06 08:59:42;;;;;;;7.60;3.88;;;4.00;99.90;;;;;;5019806;28;20073;-66
2024/01/06 09:02:14;;;;;;;7.78;4.07;;;4.00;99.90;;;;;;5028515;28;20052;-66
2024/01/06 09:04:46;;;;;;;7.40;3.67;;;4.00;99.90;;;;;;5025038;28;20042;-66
2024/01/06 09:07:17;;;;;;;10.68;4.20;;;3.90;99.90;;;;;;5024921;28;20037;-66
2024/01/06 09:09:51;;;;;;;9.23;5.05;;;3.90;99.90;;;;;;5026936;28;20034;-66
2024/01/06 09:12:23;;;;;;;6.93;4.40;;;3.90;99.90;;;;;;5024693;28;20113;-66
2024/01/06 09:14:55;;;;;;;8.73;5.15;;;3.90;99.90;;;;;;5009982;28;20585;-66
2024/01/06 09:17:22;;;;;;;11.07;5.07;;;3.90;99.90;;;;;;5022567;28;20397;-66
2024/01/06 09:19:49;;;;;;;9.48;4.82;;;3.90;99.90;;;;;;5022422;28;20067;-66
2024/01/06 09:22:21;;;;;;;6.80;4.53;;;3.90;99.90;;;;;;5029449;28;20132;-66
2024/01/06 09:24:53;;;;;;;10.95;4.40;;;3.90;99.90;;;;;;5020278;28;20038;-66
2024/01/06 09:27:24;;;;;;;8.70;4.57;;;3.90;99.90;;;;;;5023444;28;20037;-66
2024/01/06 09:29:56;;;;;;;5.70;4.68;;;3.80;99.90;;;;;;5023997;28;20112;-66
2024/01/06 09:32:28;;;;;;;7.68;4.78;;;3.80;99.90;;;;;;5026364;28;20052;-66
2024/01/06 09:35:00;;;;;;;10.35;4.68;;;3.80;99.90;;;;;;5030131;28;20109;-67
2024/01/06 09:37:32;;;;;;;10.80;5.50;;;3.80;99.90;;;;;;5030522;28;20100;-66
2024/01/06 09:40:05;;;;;;;8.95;5.57;;;3.80;99.90;;;;;;5022814;28;20749;-66
2024/01/06 09:42:37;;;;;;;7.95;4.80;;;3.80;99.90;;;;;;5029010;28;20034;-65
2024/01/06 09:45:09;;;;;;;7.82;5.10;;;3.80;99.90;;;;;;5019259;28;20048;-65
2024/01/06 09:47:41;;;;;;;8.25;5.20;;;3.80;99.90;;;;;;5021429;28;20046;-66
2024/01/06 09:50:14;;;;;;;7.35;4.72;;;3.80;99.90;;;;;;5024305;28;20044;-66
2024/01/06 09:52:55;;;;;;;9.32;5.00;;;3.70;99.90;;;;;;5022086;28;20576;-66
2024/01/06 09:55:27;;;;;;;8.82;4.85;;;3.70;99.90;;;;;;5022727;28;20068;-65
2024/01/06 09:57:54;;;;;;;9.25;6.15;;;3.80;99.90;;;;;;5027612;28;20049;-66
2024/01/06 10:00:26;;;;;;;10.38;5.75;;;3.80;99.90;;;;;;5027996;28;20045;-66
2024/01/06 10:02:58;;;;;;;8.77;5.40;;;3.80;99.90;;;;;;5025774;28;20045;-66
2024/01/06 10:05:30;;;;;;;8.23;5.55;;;3.90;99.90;;;;;;5023403;28;20042;-66
2024/01/06 10:08:04;;;;;;;7.05;5.50;;;3.90;99.90;;;;;;5014061;28;20056;-66
2024/01/06 10:10:35;;;;;;;7.60;6.30;;;4.00;99.90;;;;;;5016579;28;20048;-66
2024/01/06 10:13:07;;;;;;;8.40;5.55;;;4.00;99.90;;;;;;5012973;28;20048;-66
2024/01/06 10:15:40;;;;;;;7.45;5.28;;;4.00;99.90;;;;;;5015051;28;20046;-65
2024/01/06 10:18:13;;;;;;;10.90;5.00;;;4.00;99.90;;;;;;5028309;28;20077;-66
2024/01/06 10:20:45;;;;;;;8.73;4.97;;;4.00;99.90;;;;;;5020136;28;20091;-66
2024/01/06 10:23:17;;;;;;;7.68;4.75;;;4.00;99.90;;;;;;5023244;28;20045;-66
2024/01/06 10:25:56;;;;;;;12.20;6.15;;;3.90;99.90;;;;;;5022588;28;20042;-66
2024/01/06 10:28:28;;;;;;;5.97;4.38;;;3.90;99.90;;;;;;5021110;28;20730;-66
2024/01/06 10:31:01;;;;;;;10.05;5.00;;;3.90;99.90;;;;;;5024834;28;20063;-66
2024/01/06 10:33:33;;;;;;;7.25;4.20;;;3.90;99.90;;;;;;5024045;28;20049;-66
2024/01/06 10:36:06;;;;;;;7.40;5.75;;;3.90;99.90;;;;;;5014755;28;20132;-67
2024/01/06 10:38:39;;;;;;;8.10;5.10;;;3.90;99.90;;;;;;5012086;28;20042;-66
2024/01/06 10:41:12;;;;;;;9.07;4.90;;;3.90;99.90;;;;;;5023460;28;20297;-66
2024/01/06 10:43:44;;;;;;;6.75;4.82;;;3.90;99.90;;;;;;5019446;28;20556;-66
2024/01/06 10:46:19;;;;;;;8.30;4.88;;;3.90;99.90;;;;;;5019831;28;20127;-66
2024/01/06 10:48:52;;;;;;;10.63;5.32;;;3.90;99.90;;;;;;5022025;28;20061;-66
2024/01/06 10:51:26;;;;;;;10.32;5.95;;;3.90;99.90;;;;;;5020394;28;20053;-66
2024/01/06 10:54:01;;;;;;;8.57;5.68;;;3.90;99.90;;;;;;5019159;28;20623;-66
2024/01/06 10:56:40;;;;;;;8.93;6.28;;;4.00;99.90;;;;;;5037575;28;20399;-66
2024/01/06 10:59:14;;;;;;;7.90;5.35;;;3.90;99.90;;;;;;5024769;28;20077;-66
2024/01/06 11:01:44;;;;;;;9.90;5.72;;;3.90;99.90;;;;;;5020144;28;20034;-66
2024/01/06 11:04:16;;;;;;;8.15;5.78;;;3.90;99.90;;;;;;5022461;28;20048;-66
2024/01/06 11:06:43;;;;;;;7.47;5.93;;;3.90;99.90;;;;;;5022663;28;20033;-66
2024/01/06 11:09:18;;;;;;;11.73;7.03;;;3.90;99.90;;;;;;5014797;28;20302;-66
2024/01/06 11:11:51;;;;;;;8.07;5.85;;;4.00;99.90;;;;;;5028120;28;20049;-66
2024/01/06 11:14:27;;;;;;;8.85;6.07;;;4.00;99.90;;;;;;5027634;28;20411;-66
2024/01/06 11:16:59;;;;;;;10.23;6.18;;;4.00;99.90;;;;;;5041553;28;20045;-66
2024/01/06 11:19:34;;;;;;;8.52;5.95;;;4.00;99.90;;;;;;5026203;28;20132;-67
2024/01/06 11:22:31;;;;;;;9.80;6.40;;;4.00;99.90;;;;;;5021340;28;20044;-66
2024/01/06 11:25:15;;;;;;;12.57;6.50;;;3.90;99.90;;;;;;5022188;28;20526;-66
2024/01/06 11:27:48;;;;;;;13.27;7.65;;;4.00;99.90;;;;;;5019221;28;20044;-66
2024/01/06 11:30:23;;;;;;;11.63;7.18;;;4.00;99.90;;;;;;5013988;28;20411;-66
2024/01/06 11:32:58;;;;;;;13.27;7.05;;;3.90;99.90;;;;;;5021615;28;20069;-66
2024/01/06 11:35:30;;;;;;;9.45;6.05;;;4.00;99.90;;;;;;5023391;28;20047;-66
2024/01/06 11:38:03;;;;;;;9.00;6.55;;;4.00;99.90;;;;;;5025271;28;20080;-66
2024/01/06 11:40:36;;;;;;;16.33;7.03;;;4.00;99.90;;;;;;5021755;28;20033;-66
2024/01/06 11:43:10;;;;;;;10.38;7.43;;;4.00;99.90;;;;;;5020605;28;20052;-66
2024/01/06 11:45:42;;;;;;;13.60;8.63;;;4.00;99.90;;;;;;5021418;28;20030;-66
2024/01/06 11:48:16;;;;;;;12.68;7.10;;;4.00;99.90;;;;;;5018529;28;20130;-66
2024/01/06 11:50:48;;;;;;;12.85;7.85;;;4.00;99.90;;;;;;5029553;28;20044;-67
2024/01/06 11:53:20;;;;;;;10.77;7.07;;;4.10;99.90;;;;;;5024007;28;20044;-66
2024/01/06 11:55:52;;;;;;;14.40;7.40;;;4.00;99.90;;;;;;5017719;28;20593;-66
2024/01/06 11:58:19;;;;;;;13.95;7.07;;;4.10;99.90;;;;;;5012857;28;20084;-66
2024/01/06 12:00:58;;;;;;;13.73;7.38;;;4.10;99.90;;;;;;5017176;28;20119;-66
2024/01/06 12:03:31;;;;;;;10.23;7.85;;;4.10;99.90;;;;;;5016584;28;20172;-66
2024/01/06 12:06:03;;;;;;;13.60;7.70;;;4.10;99.90;;;;;;5023358;28;20077;-66
2024/01/06 12:08:30;;;;;;;9.68;7.07;;;4.10;99.90;;;;;;5022158;28;20516;-66
2024/01/06 12:11:03;;;;;;;11.23;7.03;;;4.20;99.90;;;;;;5024958;28;20554;-66
2024/01/06 12:13:35;;;;;;;10.50;7.70;;;4.20;99.90;;;;;;5019937;28;20056;-66
2024/01/06 12:16:06;;;;;;;10.32;6.45;;;4.20;99.90;;;;;;5025878;28;20048;-68
2024/01/06 12:18:33;;;;;;;11.07;6.68;;;4.20;99.90;;;;;;5021276;28;20132;-67
2024/01/06 12:21:05;;;;;;;14.65;6.45;;;4.20;99.90;;;;;;5023153;28;20034;-68
2024/01/06 12:23:32;;;;;;;8.45;6.32;;;4.20;99.90;;;;;;5018699;28;20822;-67
2024/01/06 12:26:04;;;;;;;7.93;6.47;;;4.20;99.90;;;;;;5023650;28;20033;-69
2024/01/06 12:28:36;;;;;;;12.13;6.65;;;4.20;99.90;;;;;;5024239;28;20037;-67
2024/01/06 12:31:14;;;;;;;13.18;6.88;;;4.20;99.90;;;;;;5022966;28;20604;-67
2024/01/06 12:33:46;;;;;;;9.63;6.47;;;4.20;99.90;;;;;;5022482;28;20391;-66
2024/01/06 12:36:18;;;;;;;12.70;6.97;;;4.20;99.90;;;;;;5022937;28;20042;-68
2024/01/06 12:38:46;;;;;;;11.25;7.32;;;4.20;99.90;;;;;;5025461;28;20125;-67
2024/01/06 12:41:18;;;;;;;13.87;7.20;;;4.20;99.90;;;;;;5026273;28;20124;-67
2024/01/06 12:43:49;;;;;;;12.43;8.10;;;4.20;99.90;;;;;;5009405;28;20649;-67
2024/01/06 12:46:21;;;;;;;18.58;10.52;;;4.20;99.90;;;;;;5021833;28;20040;-67
2024/01/06 12:48:53;;;;;;;15.52;10.65;;;4.10;99.90;;;;;;5023301;28;20146;-67
2024/01/06 12:51:25;;;;;;;12.48;10.05;;;4.10;99.90;;;;;;5021148;28;20042;-66
2024/01/06 12:53:58;;;;;;;10.50;6.47;;;4.10;99.90;;;;;;5024320;28;20044;-66
2024/01/06 12:56:30;;;;;;;12.00;7.20;;;4.10;99.90;;;;;;5022730;28;20049;-67
2024/01/06 12:59:02;;;;;;;9.98;7.15;;;4.10;99.90;;;;;;5020139;28;20050;-66
2024/01/06 13:01:33;;;;;;;10.15;7.20;;;4.10;99.90;;;;;;5016903;28;20042;-67
2024/01/06 13:04:01;;;;;;;12.77;6.53;;;4.10;99.90;;;;;;5018745;28;20132;-67
2024/01/06 13:06:33;;;;;;;10.93;7.00;;;4.10;99.90;;;;;;5020693;28;20042;-66
2024/01/06 13:09:06;;;;;;;9.77;6.82;;;4.10;99.90;;;;;;5020393;28;20979;-66
2024/01/06 13:11:38;;;;;;;11.02;6.97;;;4.20;99.90;;;;;;5017420;28;20049;-66
2024/01/06 13:14:10;;;;;;;9.35;6.90;;;4.20;99.90;;;;;;5020716;28;20117;-67